createdAt,value
2023-04-09T00:00:19.468Z,99974.19
2023-04-09T00:01:36.375Z,99975.06
2023-04-09T00:02:47.040Z,99969.78
2023-04-09T00:04:09.736Z,99967.97
2023-04-09T00:05:22.420Z,99971.47
2023-04-09T00:06:28.368Z,99970.63
2023-04-09T00:07:32.426Z,99968.75
2023-04-09T00:08:36.677Z,99972.25
2023-04-09T00:09:44.564Z,99973.19
2023-04-09T00:10:55.674Z,99963.47
2023-04-09T00:12:22.654Z,99965.19
2023-04-09T00:13:39.116Z,99970.63
2023-04-09T00:14:44.242Z,99969.69
2023-04-09T00:15:48.619Z,99962.69
2023-04-09T00:16:52.690Z,99973.25
2023-04-09T00:17:56.953Z,99968.84
2023-04-09T00:19:02.938Z,99980.19
2023-04-09T00:20:09.159Z,99974.03
2023-04-09T00:21:16.424Z,99974.03
2023-04-09T00:22:21.046Z,99971.41
2023-04-09T00:23:37.699Z,99967.97
2023-04-09T00:24:41.722Z,99959.28
2023-04-09T00:25:45.389Z,99969.78
2023-04-09T00:26:49.821Z,99970.63
2023-04-09T00:27:53.590Z,99968.84
2023-04-09T00:28:57.909Z,99979.31
2023-04-09T00:30:05.823Z,99966.19
2023-04-09T00:31:13.689Z,99974.03
2023-04-09T00:32:21.954Z,99965.25
2023-04-09T00:33:26.682Z,99972.34
2023-04-09T00:34:46.331Z,99974.19
2023-04-09T00:35:50.712Z,99967.13
2023-04-09T00:36:55.601Z,99975.19
2023-04-09T00:38:00.013Z,99974.19
2023-04-09T00:39:10.086Z,99975.25
2023-04-09T00:40:14.867Z,99975.06
2023-04-09T00:41:23.672Z,99970.63
2023-04-09T00:42:32.056Z,99968.13
2023-04-09T00:43:36.490Z,99966.28
2023-04-09T00:44:51.310Z,99971.56
2023-04-09T00:45:55.931Z,99966.38
2023-04-09T00:47:07.612Z,99967.97
2023-04-09T00:48:16.138Z,99966.19
2023-04-09T00:49:22.434Z,99960.91
2023-04-09T00:50:26.438Z,99965.25
2023-04-09T00:51:30.509Z,99968.84
2023-04-09T00:52:34.706Z,99964.41
2023-04-09T00:53:48.766Z,99960.91
2023-04-09T00:54:53.390Z,99966.28
2023-04-09T00:55:58.611Z,99960.06
2023-04-09T00:57:02.965Z,99960.91
2023-04-09T00:58:11.593Z,99966.13
2023-04-09T00:59:19.568Z,99965.19
2023-04-09T01:00:30.844Z,99953.00
2023-04-09T01:01:34.893Z,99964.34
2023-04-09T01:02:39.362Z,99958.34
2023-04-09T01:03:44.285Z,99965.41
2023-04-09T01:04:52.531Z,99964.50
2023-04-09T01:06:43.736Z,99972.34
2023-04-09T01:08:41.262Z,99962.19
2023-04-09T01:10:25.274Z,99967.31
2023-04-09T01:11:51.973Z,99962.84
2023-04-09T01:13:27.755Z,99962.03
2023-04-09T01:14:40.868Z,99961.09
2023-04-09T01:15:57.378Z,99964.81
2023-04-09T01:17:23.512Z,99962.25
2023-04-09T01:18:58.561Z,99952.63
2023-04-09T01:20:23.107Z,99961.59
2023-04-09T01:21:36.199Z,99952.03
2023-04-09T01:23:11.344Z,99951.97
2023-04-09T01:24:32.989Z,99950.19
2023-04-09T01:26:04.475Z,99944.13
2023-04-09T01:27:15.743Z,99956.38
2023-04-09T01:28:43.293Z,99954.59
2023-04-09T01:29:51.887Z,99956.38
2023-04-09T01:31:09.407Z,99958.16
2023-04-09T01:32:19.072Z,99957.16
2023-04-09T01:33:25.938Z,99959.81
2023-04-09T01:34:31.520Z,99957.16
2023-04-09T01:35:36.167Z,99962.31
2023-04-09T01:36:45.729Z,99959.66
2023-04-09T01:37:51.134Z,99967.47
2023-04-09T01:39:08.376Z,99968.41
2023-04-09T01:40:20.862Z,99959.53
2023-04-09T01:41:30.978Z,99957.75
2023-04-09T01:42:38.266Z,99958.75
2023-04-09T01:43:44.099Z,99964.91
2023-04-09T01:44:49.026Z,99963.03
2023-04-09T01:45:54.121Z,99970.03
2023-04-09T01:47:00.718Z,99969.19
2023-04-09T01:48:09.374Z,99967.47
2023-04-09T01:49:19.364Z,99971.03
2023-04-09T01:50:23.667Z,99971.91
2023-04-09T01:51:28.326Z,99968.25
2023-04-09T01:52:33.047Z,99964.91
2023-04-09T01:53:37.449Z,99970.03
2023-04-09T01:54:43.481Z,99961.25
2023-04-09T01:55:47.309Z,99971.66
2023-04-09T01:56:54.693Z,99971.75
2023-04-09T01:57:58.478Z,99967.41
2023-04-09T01:59:02.281Z,99972.09
2023-04-09T02:00:14.877Z,99965.88
2023-04-09T05:15:37.719Z,100004.19
2023-04-09T05:17:18.221Z,100012.03
2023-04-09T09:14:19.415Z,100005.34
2023-04-09T09:15:31.808Z,100019.41
2023-04-09T09:17:03.968Z,100011.25
2023-04-09T09:18:16.940Z,100012.06
2023-04-09T09:19:28.009Z,100013.59
2023-04-09T09:20:32.899Z,100005.63
2023-04-09T09:21:39.437Z,100015.53
2023-04-09T09:23:43.388Z,100013.47
2023-04-09T09:24:59.830Z,100022.84
2023-04-09T09:26:43.819Z,100017.97
2023-04-09T09:28:26.525Z,100022.00
2023-04-09T09:29:48.854Z,100017.13
2023-04-09T09:31:17.234Z,100020.16
2023-04-09T09:32:27.107Z,100024.34
2023-04-09T09:33:37.073Z,100015.06
2023-04-09T09:34:44.221Z,100028.06
2023-04-09T09:35:58.917Z,100025.13
2023-04-09T09:37:28.643Z,100030.72
2023-04-09T09:38:58.455Z,100027.19
2023-04-09T09:40:57.437Z,100024.72
2023-04-09T09:42:15.496Z,100033.69
2023-04-09T09:43:21.147Z,100027.97
2023-04-09T09:44:40.324Z,100023.06
2023-04-09T09:45:51.911Z,100029.00
2023-04-09T09:47:00.815Z,100018.69
2023-04-09T09:48:18.117Z,100026.91
2023-04-09T09:49:26.351Z,100023.97
2023-04-09T09:50:43.492Z,100024.66
2023-04-09T09:51:54.468Z,100022.53
2023-04-09T09:53:09.667Z,100022.06
2023-04-09T09:54:30.506Z,100021.84
2023-04-09T09:55:49.390Z,100015.66
2023-04-09T09:56:59.123Z,100018.56
2023-04-09T09:58:51.771Z,100015.78
2023-04-09T10:00:09.245Z,100007.06
2023-04-09T10:01:21.225Z,100011.50
2023-04-09T10:02:31.892Z,100012.53
2023-04-09T10:03:41.559Z,100013.72
2023-04-09T10:04:56.944Z,100011.91
2023-04-09T10:07:06.122Z,100012.22
2023-04-09T10:08:11.841Z,100008.06
2023-04-09T10:09:19.222Z,100014.34
2023-04-09T10:10:28.235Z,100009.00
2023-04-09T10:11:37.496Z,100014.78
2023-04-09T10:13:22.239Z,100010.63
2023-04-09T10:14:30.946Z,100005.59
2023-04-09T10:15:56.002Z,99997.59
2023-04-09T10:17:09.043Z,99998.97
2023-04-09T10:18:13.646Z,100006.47
2023-04-09T10:19:32.560Z,100007.31
2023-04-09T10:21:06.027Z,100003.47
2023-04-09T10:22:27.115Z,100008.16
2023-04-09T10:24:32.110Z,100004.84
2023-04-09T10:25:36.266Z,100004.41
2023-04-09T10:26:54.770Z,99999.72
2023-04-09T10:28:21.297Z,99992.75
2023-04-09T10:31:55.657Z,99992.28
2023-04-09T10:33:25.438Z,99993.19
2023-04-09T10:34:43.990Z,99986.34
2023-04-09T10:35:50.222Z,99990.81
2023-04-09T10:37:58.117Z,99990.06
2023-04-09T10:39:39.034Z,99991.19
2023-04-09T10:40:52.424Z,99993.19
2023-04-09T10:42:35.834Z,99982.00
2023-04-09T10:43:43.354Z,99977.38
2023-04-09T10:45:12.740Z,99983.94
2023-04-09T10:46:29.481Z,99988.50
2023-04-09T10:47:44.309Z,99988.81
2023-04-09T10:48:50.130Z,99989.63
2023-04-09T10:49:57.378Z,99997.13
2023-04-09T10:51:11.843Z,99989.22
2023-04-09T10:52:16.971Z,99988.94
2023-04-09T10:53:28.046Z,99990.84
2023-04-09T10:54:34.968Z,99990.84
2023-04-09T10:55:48.150Z,99991.19
2023-04-09T10:57:31.248Z,99982.47
2023-04-09T11:00:19.771Z,99985.28
2023-04-09T11:01:25.235Z,99980.13
2023-04-09T11:03:23.573Z,99983.72
2023-04-09T11:04:55.603Z,99986.16
2023-04-09T11:06:20.577Z,99985.31
2023-04-09T11:07:36.310Z,99986.16
2023-04-09T11:08:47.529Z,99987.47
2023-04-09T11:09:52.689Z,99981.47
2023-04-09T11:11:21.171Z,99982.00
2023-04-09T11:12:32.112Z,99986.28
2023-04-09T11:13:42.803Z,99981.16
2023-04-09T11:15:19.838Z,99980.19
2023-04-09T11:16:30.119Z,99984.13
2023-04-09T11:17:50.852Z,99985.19
2023-04-09T11:19:10.138Z,99984.13
2023-04-09T11:20:20.999Z,99966.97
2023-04-09T11:23:01.970Z,99976.97
2023-04-09T11:24:28.701Z,99982.09
2023-04-09T11:25:38.164Z,99977.19
2023-04-09T11:26:49.511Z,99981.78
2023-04-09T11:27:55.021Z,99981.66
2023-04-09T11:29:10.556Z,99978.06
2023-04-09T11:30:15.853Z,99974.44
2023-04-09T11:31:20.312Z,99981.25
2023-04-09T11:32:32.056Z,99981.03
2023-04-09T11:33:36.548Z,99987.00
2023-04-09T11:34:43.297Z,99982.63
2023-04-09T11:35:57.563Z,99964.50
2023-04-09T11:37:17.408Z,99973.34
2023-04-09T11:38:21.562Z,99980.19
2023-04-09T11:39:29.730Z,99976.97
2023-04-09T11:40:34.442Z,99974.09
2023-04-09T11:41:47.087Z,99978.25
2023-04-09T11:42:59.866Z,99968.00
2023-04-09T11:44:09.526Z,99968.97
2023-04-09T11:45:17.925Z,99968.53
2023-04-09T11:46:26.530Z,99979.00
2023-04-09T11:47:34.641Z,99974.63
2023-04-09T11:48:41.993Z,99976.31
2023-04-09T11:50:08.317Z,99971.84
2023-04-09T11:51:13.261Z,99973.22
2023-04-09T11:52:36.561Z,99981.00
2023-04-09T11:53:52.305Z,99986.13
2023-04-09T11:55:31.659Z,99980.66
2023-04-09T11:57:11.010Z,99983.75
2023-04-09T11:58:16.706Z,99983.31
2023-04-09T11:59:24.330Z,99979.03
2023-04-09T12:00:30.169Z,99984.78
2023-04-09T12:01:43.901Z,99987.69
2023-04-09T12:03:06.490Z,99982.59
2023-04-09T12:04:34.950Z,99987.56
2023-04-09T12:05:53.761Z,99990.97
2023-04-09T12:07:26.232Z,99986.97
2023-04-09T12:08:41.858Z,99984.06
2023-04-09T12:10:00.361Z,99989.22
2023-04-09T12:11:18.002Z,99990.06
2023-04-09T12:12:47.220Z,99986.31
2023-04-09T12:14:06.923Z,99985.13
2023-04-09T12:15:33.352Z,99987.28
2023-04-09T12:16:50.997Z,99987.69
2023-04-09T12:18:04.246Z,99992.50
2023-04-09T12:19:17.311Z,99991.34
2023-04-09T12:20:44.871Z,99987.84
2023-04-09T12:21:59.219Z,99994.13
2023-04-09T12:23:15.617Z,99999.25
2023-04-09T12:24:44.492Z,99989.41
2023-04-09T12:25:51.564Z,99985.59
2023-04-09T12:26:57.704Z,99979.28
2023-04-09T12:28:10.460Z,99992.31
2023-04-09T12:29:37.440Z,99986.75
2023-04-09T12:31:14.326Z,99989.53
2023-04-09T12:32:20.112Z,99967.44
2023-04-09T12:33:26.565Z,99980.25
2023-04-09T12:34:31.728Z,99978.03
2023-04-09T12:35:45.818Z,99984.84
2023-04-09T12:36:52.381Z,99975.63
2023-04-09T12:37:57.387Z,99980.53
2023-04-09T12:39:02.758Z,99984.56
2023-04-09T12:40:15.063Z,99978.78
2023-04-09T12:41:20.872Z,99977.41
2023-04-09T12:42:31.946Z,99985.06
2023-04-09T12:43:56.883Z,99982.06
2023-04-09T12:45:02.931Z,99982.91
2023-04-09T12:46:10.638Z,99983.19
2023-04-09T12:47:17.276Z,99981.91
2023-04-09T12:48:25.007Z,99976.09
2023-04-09T12:49:29.753Z,99973.44
2023-04-09T12:50:36.998Z,99974.56
2023-04-09T12:51:42.033Z,99974.56
2023-04-09T12:52:47.216Z,99978.19
2023-04-09T12:54:08.487Z,99985.38
2023-04-09T12:55:19.004Z,99969.41
2023-04-09T12:56:22.911Z,99972.59
2023-04-09T12:57:27.878Z,99972.59
2023-04-09T12:58:38.377Z,99965.56
2023-04-09T13:01:04.523Z,99972.16
2023-04-09T13:02:12.638Z,99978.63
2023-04-09T13:03:22.314Z,99961.84
2023-04-09T13:04:26.977Z,99963.44
2023-04-09T13:05:36.772Z,99972.47
2023-04-09T13:08:11.580Z,99967.50
2023-04-09T13:09:23.751Z,99970.91
2023-04-09T13:10:28.837Z,99947.81
2023-04-09T13:11:33.989Z,99962.75
2023-04-09T13:12:47.877Z,99968.75
2023-04-09T13:13:56.120Z,99964.59
2023-04-09T13:15:05.316Z,99952.31
2023-04-09T13:16:10.552Z,99954.63
2023-04-09T13:17:18.129Z,99963.13
2023-04-09T13:18:28.573Z,99964.13
2023-04-09T13:19:37.134Z,99966.41
2023-04-09T13:20:44.941Z,99961.81
2023-04-09T13:21:54.129Z,99950.97
2023-04-09T13:22:58.922Z,99962.41
2023-04-09T13:24:07.615Z,99960.97
2023-04-09T13:25:13.232Z,99966.31
2023-04-09T13:26:24.350Z,99962.41
2023-04-09T13:27:34.086Z,99963.19
2023-04-09T13:28:39.165Z,99966.56
2023-04-09T13:29:43.655Z,99959.63
2023-04-09T13:30:54.257Z,99961.34
2023-04-09T13:32:09.946Z,99963.75
2023-04-09T13:33:54.319Z,99958.97
2023-04-09T13:34:59.820Z,99945.81
2023-04-09T13:36:07.636Z,99958.25
2023-04-09T13:37:14.109Z,99963.59
2023-04-09T13:38:26.079Z,99955.06
2023-04-09T13:39:32.105Z,99970.13
2023-04-09T13:40:39.804Z,99965.03
2023-04-09T13:42:00.097Z,99959.75
2023-04-09T13:43:04.269Z,99954.16
2023-04-09T13:44:08.546Z,99960.34
2023-04-09T13:45:14.055Z,99966.34
2023-04-09T13:46:19.182Z,99964.25
2023-04-09T13:47:24.830Z,99967.53
2023-04-09T13:48:29.442Z,99964.75
2023-04-09T13:49:45.666Z,99958.66
2023-04-09T13:50:55.360Z,99963.03
2023-04-09T13:52:00.116Z,99961.84
2023-04-09T13:53:05.532Z,99965.25
2023-04-09T13:54:14.365Z,99960.16
2023-04-09T13:55:21.344Z,99961.13
2023-04-09T13:56:27.833Z,99953.94
2023-04-09T13:57:33.220Z,99957.09
2023-04-09T13:58:37.882Z,99963.56
2023-04-09T13:59:42.936Z,99948.81
2023-04-09T14:00:57.525Z,99946.28
2023-04-09T14:02:30.015Z,99954.44
2023-04-09T14:03:36.277Z,99944.50
2023-04-09T14:04:42.319Z,99930.75
2023-04-09T14:05:48.325Z,99942.53
2023-04-09T14:06:56.525Z,99956.16
2023-04-09T14:08:02.205Z,99935.13
2023-04-09T14:09:10.724Z,99949.00
2023-04-09T14:10:15.490Z,99947.25
2023-04-09T14:11:20.409Z,99945.47
2023-04-09T14:12:30.603Z,99947.25
2023-04-09T14:13:34.951Z,99933.63
2023-04-09T14:14:43.578Z,99943.84
2023-04-09T14:15:55.335Z,99949.00
2023-04-09T14:17:02.997Z,99951.88
2023-04-09T14:18:07.158Z,99943.00
2023-04-09T14:19:11.980Z,99947.50
2023-04-09T14:20:36.137Z,99946.41
2023-04-09T14:21:47.972Z,99954.06
2023-04-09T14:23:09.068Z,99942.63
2023-04-09T14:24:17.226Z,99953.31
2023-04-09T14:25:30.258Z,99940.06
2023-04-09T14:28:55.417Z,99939.06
2023-04-09T14:31:08.158Z,99944.31
2023-04-09T14:33:43.370Z,99937.84
2023-04-09T14:34:55.741Z,99925.53
2023-04-09T14:37:32.686Z,99944.75
2023-04-09T14:38:41.498Z,99934.78
2023-04-09T14:39:57.751Z,99943.19
2023-04-09T14:41:07.805Z,99945.84
2023-04-09T14:42:21.350Z,99929.44
2023-04-09T14:43:28.265Z,99932.81
2023-04-09T14:44:33.186Z,99934.00
2023-04-09T14:45:38.040Z,99928.22
2023-04-09T14:46:46.801Z,99934.78
2023-04-09T14:47:51.281Z,99935.56
2023-04-09T14:48:56.156Z,99932.88
2023-04-09T14:50:04.505Z,99938.72
2023-04-09T14:51:12.606Z,99929.72
2023-04-09T14:52:19.728Z,99924.88
2023-04-09T14:53:29.612Z,99935.91
2023-04-09T14:54:38.959Z,99935.81
2023-04-09T14:55:46.894Z,99936.56
2023-04-09T14:57:11.789Z,99936.56
2023-04-09T14:58:52.079Z,99930.94
2023-04-09T15:00:01.569Z,99924.88
2023-04-09T15:01:09.663Z,99928.53
2023-04-09T15:02:14.844Z,99922.66
2023-04-09T15:03:26.436Z,99916.59
2023-04-09T15:04:31.805Z,99932.13
2023-04-09T15:05:46.451Z,99937.97
2023-04-09T15:06:51.197Z,99929.00
2023-04-09T15:08:04.503Z,99926.56
2023-04-09T15:09:12.413Z,99930.69
2023-04-09T15:11:42.503Z,99928.59
2023-04-09T15:12:48.057Z,99935.78
2023-04-09T15:15:22.585Z,99920.72
2023-04-09T15:16:39.514Z,99927.41
2023-04-09T15:48:22.989Z,99926.31
2023-04-09T15:49:27.082Z,99919.06
2023-04-09T15:50:30.951Z,99921.53
2023-04-09T15:51:34.501Z,99921.31
2023-04-09T15:52:38.704Z,99922.25
2023-04-09T15:53:42.803Z,99927.72
2023-04-09T15:54:46.508Z,99924.41
2023-04-09T15:55:51.936Z,99923.88
2023-04-09T15:56:55.440Z,99931.03
2023-04-09T15:57:59.016Z,99926.03
2023-04-09T15:59:05.492Z,99930.75
2023-04-09T16:00:10.765Z,99924.03
2023-04-09T16:34:12.783Z,99931.13
2023-04-09T16:36:54.301Z,99936.00
2023-04-09T16:38:12.223Z,99936.56
2023-04-09T16:39:24.913Z,99927.91
2023-04-09T16:40:35.258Z,99937.31
2023-04-09T16:41:39.175Z,99935.41
2023-04-09T16:42:47.462Z,99935.53
2023-04-09T16:43:55.222Z,99946.06
2023-04-09T16:45:04.697Z,99940.94
2023-04-09T16:46:21.235Z,99940.19
2023-04-09T16:47:33.878Z,99946.50
2023-04-09T16:48:43.393Z,99938.38
2023-04-09T16:49:51.592Z,99931.63
2023-04-09T16:50:56.258Z,99945.63
2023-04-09T16:52:08.531Z,99936.22
2023-04-09T16:53:29.531Z,99931.28
2023-04-09T16:54:44.686Z,99935.78
2023-04-09T16:55:52.773Z,99941.22
2023-04-09T16:57:02.353Z,99945.69
2023-04-09T16:58:09.988Z,99942.19
2023-04-09T16:59:18.525Z,99947.63
2023-04-09T17:00:33.170Z,99935.34
2023-04-09T17:01:51.111Z,99938.41
2023-04-09T17:03:14.542Z,99939.19
2023-04-09T17:04:47.351Z,99948.34
2023-04-09T17:06:11.025Z,99950.88
2023-04-09T17:07:28.093Z,99952.91
2023-04-09T17:08:42.326Z,99954.41
2023-04-09T17:10:04.297Z,99952.81
2023-04-09T17:11:39.136Z,99954.63
2023-04-09T17:12:53.014Z,99950.56
2023-04-09T17:14:11.024Z,99953.88
2023-04-09T17:15:32.449Z,99943.53
2023-04-09T17:16:54.206Z,99949.69
2023-04-09T17:18:02.049Z,99961.09
2023-04-09T17:19:15.605Z,99953.44
2023-04-09T17:20:22.887Z,99949.38
2023-04-09T17:21:45.244Z,99949.38
2023-04-09T17:23:02.808Z,99959.81
2023-04-09T17:24:23.645Z,99962.69
2023-04-09T17:25:39.388Z,99962.69
2023-04-09T17:26:46.527Z,99965.34
2023-04-09T17:28:10.485Z,99949.78
2023-04-09T17:29:38.715Z,99968.75
2023-04-09T17:31:10.413Z,99961.84
2023-04-09T17:32:34.131Z,99969.59
2023-04-09T17:42:00.916Z,99972.50
2023-04-09T17:45:00.142Z,99972.59
2023-04-09T17:47:34.489Z,99978.97
2023-04-09T17:48:43.998Z,99985.13
2023-04-09T17:49:50.083Z,99975.78
2023-04-09T17:50:57.808Z,99985.13
2023-04-09T17:52:09.994Z,99991.31
2023-04-09T17:53:24.254Z,99990.56
2023-04-09T17:54:35.288Z,99987.06
2023-04-09T17:55:40.309Z,99979.28
2023-04-09T17:56:45.313Z,99993.34
2023-04-09T17:57:50.157Z,99995.06
2023-04-09T17:58:57.862Z,99982.34
2023-04-09T18:00:11.657Z,99994.94
2023-04-09T18:01:20.144Z,99988.13
2023-04-09T18:02:26.977Z,99984.72
2023-04-09T18:03:40.886Z,99986.59
2023-04-09T18:04:50.174Z,99982.13
2023-04-09T18:05:56.544Z,99989.63
2023-04-09T18:07:12.741Z,99996.66
2023-04-09T18:08:20.866Z,99989.94
2023-04-09T18:09:42.710Z,100006.44
2023-04-09T18:11:13.772Z,99995.28
2023-04-09T18:12:18.983Z,99997.72
2023-04-09T18:13:24.010Z,100001.34
2023-04-09T18:14:35.325Z,100007.53
2023-04-09T18:15:43.939Z,100004.00
2023-04-09T18:17:00.133Z,99990.97
2023-04-09T18:18:04.600Z,100004.13
2023-04-09T18:19:16.006Z,99994.50
2023-04-09T18:20:19.879Z,100002.59
2023-04-09T18:21:31.780Z,100009.44
2023-04-09T18:22:36.684Z,100004.00
2023-04-09T18:23:52.900Z,100012.94
2023-04-09T18:25:02.296Z,100012.22
2023-04-09T18:26:14.017Z,100011.53
2023-04-09T18:27:24.713Z,100010.47
2023-04-09T18:29:54.911Z,100010.59
2023-04-09T18:31:30.714Z,100013.34
2023-04-09T18:32:42.795Z,100021.34
2023-04-09T18:33:47.440Z,100014.41
2023-04-09T18:34:54.140Z,100019.63
2023-04-09T18:36:13.807Z,100024.97
2023-04-09T18:37:18.587Z,100026.88
2023-04-09T18:38:25.913Z,100021.09
2023-04-09T18:39:36.639Z,100026.97
2023-04-09T18:40:47.907Z,100032.38
2023-04-09T18:41:55.723Z,100034.19
2023-04-09T18:43:13.153Z,100030.13
2023-04-09T18:44:17.557Z,100029.38
2023-04-09T18:45:24.954Z,100029.38
2023-04-09T18:46:29.250Z,100022.72
2023-04-09T18:47:33.525Z,100033.00
2023-04-09T18:48:43.456Z,100025.97
2023-04-09T18:49:53.224Z,100031.94
2023-04-09T18:50:57.344Z,100032.88
2023-04-09T18:52:10.999Z,100019.00
2023-04-09T18:53:18.404Z,100043.34
2023-04-09T18:54:22.753Z,100035.44
2023-04-09T18:55:29.519Z,100035.53
2023-04-09T18:56:38.144Z,100039.16
2023-04-09T18:57:47.575Z,100033.00
2023-04-09T18:58:59.949Z,100038.50
2023-04-09T19:00:08.982Z,100040.41
2023-04-09T19:01:13.544Z,100036.16
2023-04-09T19:02:17.938Z,100034.53
2023-04-09T19:03:24.513Z,100037.38
2023-04-09T19:04:28.888Z,100042.31
2023-04-09T19:05:36.556Z,100037.22
2023-04-09T19:06:41.883Z,100045.94
2023-04-09T19:07:45.744Z,100042.72
2023-04-09T19:08:58.591Z,100036.53
2023-04-09T19:10:04.262Z,100043.56
2023-04-09T19:11:26.141Z,100042.91
2023-04-09T19:12:30.367Z,100046.22
2023-04-09T19:13:35.196Z,100042.72
2023-04-09T19:14:47.433Z,100043.66
2023-04-09T19:15:57.374Z,100040.44
2023-04-09T19:17:08.845Z,100042.13
2023-04-09T19:18:23.900Z,100045.75
2023-04-09T19:19:35.177Z,100038.63
2023-04-09T19:20:41.694Z,100050.34
2023-04-09T19:21:47.858Z,100048.72
2023-04-09T19:22:56.912Z,100045.97
2023-04-09T19:24:05.472Z,100050.44
2023-04-09T19:25:15.047Z,100045.22
2023-04-09T19:26:20.808Z,100047.00
2023-04-09T19:27:27.562Z,100052.31
2023-04-09T19:28:32.373Z,100055.06
2023-04-09T19:29:46.528Z,100055.94
2023-04-09T19:30:52.785Z,100042.94
2023-04-09T19:31:57.446Z,100050.59
2023-04-09T19:33:08.853Z,100041.22
2023-04-09T19:34:20.728Z,100051.66
2023-04-09T19:35:25.141Z,100055.06
2023-04-09T19:36:31.780Z,100050.72
2023-04-09T19:37:45.585Z,100057.75
2023-04-09T19:38:53.787Z,100062.09
2023-04-09T19:40:09.904Z,100059.66
2023-04-09T19:41:13.909Z,100057.75
2023-04-09T19:42:20.098Z,100059.06
2023-04-09T19:43:28.693Z,100059.06
2023-04-09T19:44:38.927Z,100042.63
2023-04-09T19:45:49.960Z,100040.44
2023-04-09T19:46:59.637Z,100055.88
2023-04-09T19:48:13.366Z,100062.88
2023-04-09T19:49:23.570Z,100047.03
2023-04-09T19:50:31.360Z,100058.13
2023-04-09T19:51:36.112Z,100054.53
2023-04-09T19:52:48.595Z,100042.16
2023-04-09T19:53:56.285Z,100056.13
2023-04-09T19:55:02.123Z,100050.06
2023-04-09T19:56:11.855Z,100055.19
2023-04-09T19:57:16.655Z,100052.78
2023-04-09T19:58:20.861Z,100052.63
2023-04-09T19:59:26.501Z,100054.44
2023-04-09T20:00:34.315Z,100054.44
2023-04-09T20:01:38.815Z,100054.53
2023-04-09T20:02:59.594Z,100059.75
2023-04-09T20:04:13.415Z,100051.19
2023-04-09T20:05:32.166Z,100062.69
2023-04-09T20:06:36.471Z,100057.34
2023-04-09T20:07:41.196Z,100061.72
2023-04-09T20:08:47.476Z,100054.91
2023-04-09T20:09:51.949Z,100054.69
2023-04-09T20:10:56.572Z,100064.50
2023-04-09T20:12:09.099Z,100066.19
2023-04-09T20:13:14.014Z,100060.22
2023-04-09T20:14:18.504Z,100058.31
2023-04-09T20:15:23.072Z,100048.88
2023-04-09T20:16:27.375Z,100052.34
2023-04-09T20:17:32.196Z,100069.81
2023-04-09T20:18:41.536Z,100062.78
2023-04-09T20:19:47.833Z,100047.25
2023-04-09T20:20:52.790Z,100056.09
2023-04-09T20:21:59.672Z,100057.56
2023-04-09T20:23:03.800Z,100055.03
2023-04-09T20:24:09.276Z,100059.38
2023-04-09T20:25:15.549Z,100062.09
2023-04-09T20:26:19.575Z,100056.09
2023-04-09T20:27:38.841Z,100050.97
2023-04-09T20:29:03.960Z,100048.38
2023-04-09T20:30:23.098Z,100058.00
2023-04-09T20:31:37.725Z,100057.16
2023-04-09T20:32:42.215Z,100059.03
2023-04-09T20:33:59.428Z,100048.00
2023-04-09T20:35:15.096Z,100063.69
2023-04-09T20:36:20.028Z,100060.28
2023-04-09T20:37:37.764Z,100063.00
2023-04-09T20:38:43.328Z,100062.34
2023-04-09T20:39:50.231Z,100060.75
2023-04-09T20:40:57.219Z,100053.97
2023-04-09T20:42:01.594Z,100060.16
2023-04-09T20:43:08.145Z,100070.59
2023-04-09T20:44:13.622Z,100062.81
2023-04-09T20:45:17.579Z,100063.81
2023-04-09T20:46:22.808Z,100069.06
2023-04-09T20:47:32.459Z,100065.81
2023-04-09T20:48:37.964Z,100059.66
2023-04-09T20:49:46.949Z,100072.84
2023-04-09T20:50:57.015Z,100069.44
2023-04-09T20:52:03.054Z,100058.97
2023-04-09T20:53:21.676Z,100066.88
2023-04-09T20:54:47.366Z,100068.75
2023-04-09T20:55:56.231Z,100062.88
2023-04-09T20:57:06.021Z,100061.22
2023-04-09T20:58:13.418Z,100062.88
2023-04-09T20:59:23.810Z,100063.72
2023-04-09T21:00:29.551Z,100057.56
2023-04-09T21:01:33.540Z,100062.09
2023-04-09T21:02:42.149Z,100061.06
2023-04-09T21:03:57.179Z,100061.22
2023-04-09T21:05:21.730Z,100062.94
2023-04-09T21:06:29.264Z,100065.69
2023-04-09T21:07:33.801Z,100062.09
2023-04-09T21:08:44.495Z,100058.75
2023-04-09T21:09:50.039Z,100057.81
2023-04-09T21:10:55.584Z,100059.63
2023-04-09T21:12:02.759Z,100057.81
2023-04-09T21:13:14.370Z,100056.09
2023-04-09T21:14:21.004Z,100065.03
2023-04-09T21:15:25.310Z,100063.47
2023-04-09T21:16:31.872Z,100069.66
2023-04-09T21:17:37.626Z,100059.97
2023-04-09T21:18:42.893Z,100068.22
2023-04-09T21:19:53.431Z,100063.19
2023-04-09T21:21:04.600Z,100060.63
2023-04-09T21:22:13.686Z,100066.69
2023-04-09T21:23:21.222Z,100059.66
2023-04-09T21:24:27.170Z,100063.94
2023-04-09T21:25:43.714Z,100057.97
2023-04-09T21:26:55.238Z,100058.72
2023-04-09T21:28:03.856Z,100054.81
2023-04-09T21:29:12.053Z,100060.13
2023-04-09T21:30:16.240Z,100060.97
2023-04-09T21:31:24.118Z,100062.88
2023-04-09T21:32:28.557Z,100060.97
2023-04-09T21:33:32.747Z,100060.03
2023-04-09T21:34:47.774Z,100073.31
2023-04-09T21:35:54.958Z,100070.66
2023-04-09T21:37:04.063Z,100068.00
2023-04-09T21:38:26.301Z,100069.03
2023-04-09T21:39:34.038Z,100075.19
2023-04-09T21:40:48.560Z,100072.91
2023-04-09T21:42:03.007Z,100075.47
2023-04-09T21:43:09.022Z,100075.56
2023-04-09T21:44:23.581Z,100071.94
2023-04-09T21:45:40.518Z,100075.47
2023-04-09T21:46:44.551Z,100071.94
2023-04-09T21:47:54.972Z,100077.25
2023-04-09T21:49:05.603Z,100072.81
2023-04-09T21:50:15.118Z,100072.72
2023-04-09T21:51:19.989Z,100078.81
2023-04-09T21:52:34.595Z,100078.97
2023-04-09T21:53:43.553Z,100076.41
2023-04-09T21:54:49.208Z,100067.69
2023-04-09T21:55:57.169Z,100075.56
2023-04-09T21:57:06.599Z,100071.84
2023-04-09T21:58:12.929Z,100078.13
2023-04-09T21:59:24.707Z,100073.84
2023-04-09T22:00:31.499Z,100080.00
2023-04-09T22:01:36.204Z,100075.56
2023-04-09T22:02:40.556Z,100079.16
2023-04-09T22:03:47.836Z,100083.63
2023-04-09T22:05:03.315Z,100081.41
2023-04-09T22:06:13.823Z,100087.72
2023-04-09T22:07:21.273Z,100083.25
2023-04-09T22:08:30.245Z,100087.63
2023-04-09T22:09:36.003Z,100087.72
2023-04-09T22:10:53.897Z,100081.75
2023-04-09T22:12:26.496Z,100082.59
2023-04-09T22:13:39.251Z,100078.47
2023-04-09T22:14:47.551Z,100077.38
2023-04-09T22:16:10.573Z,100086.56
2023-04-09T22:17:16.560Z,100080.44
2023-04-09T22:18:28.515Z,100075.22
2023-04-09T22:19:39.048Z,100078.81
2023-04-09T22:20:48.529Z,100077.88
2023-04-09T22:21:53.855Z,100077.78
2023-04-09T22:23:06.248Z,100083.03
2023-04-09T22:24:11.311Z,100076.88
2023-04-09T22:25:15.831Z,100074.13
2023-04-09T22:26:22.863Z,100076.28
2023-04-09T22:27:28.869Z,100080.72
2023-04-09T22:28:42.753Z,100072.84
2023-04-09T22:30:04.977Z,100072.00
2023-04-09T22:31:11.411Z,100072.00
2023-04-09T22:32:22.748Z,100072.91
2023-04-09T22:33:27.295Z,100080.97
2023-04-09T22:34:42.702Z,100076.59
2023-04-09T22:35:52.978Z,100075.84
2023-04-09T22:37:02.372Z,100080.41
2023-04-09T22:38:26.918Z,100084.81
2023-04-09T22:39:45.561Z,100076.09
2023-04-09T22:41:18.402Z,100079.59